Time;durP1;ratioP1;P1;durP2;ratioP2;P2;SDS_P1;SDS_P2;PMS_P1;PMS_P2;Temp;Humidity;BMP_temperature;BMP_pressure;BME280_temperature;BME280_humidity;BME280_pressure;Samples;Min_cycle;Max_cycle;Signal;HPM_P1;HPM_P2
2022/06/21 00:02:07;;;;;;;9.43;5.35;;;;;;;9.86;94.64;98333.84;5046715;28;20328;-69
2022/06/21 00:04:33;;;;;;;14.43;5.85;;;;;;;9.87;95.00;98327.72;5045574;28;20032;-69
2022/06/21 00:07:02;;;;;;;7.72;5.22;;;;;;;9.89;94.56;98333.78;5046661;28;20095;-69
2022/06/21 00:09:27;;;;;;;9.88;5.65;;;;;;;9.91;94.46;98337.25;5046838;28;20247;-69
2022/06/21 00:11:53;;;;;;;8.95;5.63;;;;;;;10.00;94.78;98344.94;5046540;28;20072;-69
2022/06/21 00:14:18;;;;;;;9.32;5.53;;;;;;;10.05;94.69;98351.81;5050198;28;20032;-69
2022/06/21 00:16:43;;;;;;;9.40;5.53;;;;;;;9.88;93.19;98347.81;5058874;28;20080;-69
2022/06/21 00:19:22;;;;;;;8.63;5.88;;;;;;;9.95;94.09;98349.41;5058129;28;20024;-69
2022/06/21 00:21:48;;;;;;;8.32;5.57;;;;;;;9.92;94.33;98352.13;5051534;28;20133;-69
2022/06/21 00:24:16;;;;;;;8.82;5.78;;;;;;;9.95;94.44;98350.28;5046087;28;20045;-69
2022/06/21 00:26:42;;;;;;;8.95;5.65;;;;;;;9.75;94.39;98341.09;5046180;28;20097;-69
2022/06/21 00:29:08;;;;;;;7.82;4.63;;;;;;;9.75;94.96;98341.09;5047384;28;20053;-69
2022/06/21 00:31:36;;;;;;;13.48;5.72;;;;;;;9.74;94.91;98334.09;5060468;28;20024;-69
2022/06/21 00:34:10;;;;;;;9.13;5.15;;;;;;;9.59;94.25;98334.44;5065793;28;20025;-69
2022/06/21 00:36:37;;;;;;;9.57;5.05;;;;;;;9.57;94.47;98336.22;5065534;28;20035;-69
2022/06/21 00:39:05;;;;;;;8.68;5.90;;;;;;;9.68;95.65;98345.59;5065685;28;20024;-69
2022/06/21 00:41:39;;;;;;;15.73;6.18;;;;;;;9.72;95.59;98344.66;5065611;28;20028;-69
2022/06/21 00:44:09;;;;;;;8.73;6.00;;;;;;;9.76;95.72;98338.44;5055644;28;20025;-69
2022/06/21 00:46:52;;;;;;;8.02;5.63;;;;;;;9.68;94.97;98339.50;5045882;28;20084;-69
2022/06/21 00:49:24;;;;;;;7.43;5.35;;;;;;;9.54;95.17;98331.00;5045861;28;20328;-69
2022/06/21 00:51:57;;;;;;;8.05;5.80;;;;;;;9.52;95.55;98327.56;5045872;28;20033;-69
2022/06/21 00:54:33;;;;;;;6.50;4.90;;;;;;;9.32;95.01;98329.69;5045936;28;20056;-69
2022/06/21 00:57:11;;;;;;;9.52;5.95;;;;;;;9.48;96.42;98328.50;5046787;28;20025;-69
2022/06/21 00:59:37;;;;;;;7.38;5.53;;;;;;;9.33;96.29;98316.53;5046795;28;20025;-69
2022/06/21 01:02:06;;;;;;;6.65;5.13;;;;;;;9.32;96.80;98314.81;5045613;28;20035;-69
2022/06/21 01:04:39;;;;;;;8.00;5.13;;;;;;;9.30;96.17;98321.00;5045593;28;20028;-69
2022/06/21 01:07:08;;;;;;;10.95;5.35;;;;;;;9.18;95.75;98308.97;5058189;28;20063;-69
2022/06/21 01:09:41;;;;;;;6.20;4.82;;;;;;;9.28;97.03;98301.78;5065135;28;20025;-69
2022/06/21 01:12:15;;;;;;;9.50;5.60;;;;;;;9.20;96.76;98303.69;5065422;28;20103;-69
2022/06/21 01:14:50;;;;;;;9.35;6.07;;;;;;;9.30;96.83;98297.38;5065231;28;20215;-69
2022/06/21 01:17:17;;;;;;;8.48;5.82;;;;;;;9.28;97.35;98299.16;5050998;28;20027;-69
2022/06/21 01:20:03;;;;;;;8.75;5.72;;;;;;;9.30;96.77;98289.50;5045232;28;20096;-69
2022/06/21 01:22:51;;;;;;;6.45;5.22;;;;;;;9.03;96.67;98285.63;5055372;28;20028;-69
2022/06/21 01:25:49;;;;;;;9.77;5.47;;;;;;;9.01;97.10;98287.41;5064825;28;20029;-69
2022/06/21 01:28:15;;;;;;;7.05;5.07;;;;;;;9.15;97.45;98274.91;5045002;28;20025;-69
2022/06/21 01:30:48;;;;;;;9.82;6.22;;;;;;;9.09;97.80;98282.00;5045334;28;20025;-69
2022/06/21 01:33:16;;;;;;;8.57;5.95;;;;;;;9.09;97.50;98282.00;5045038;28;20028;-69
2022/06/21 01:35:54;;;;;;;11.60;5.50;;;;;;;9.05;97.41;98282.97;5046075;28;20066;-69
2022/06/21 01:38:27;;;;;;;10.27;5.55;;;;;;;8.96;97.30;98277.91;5045023;28;20026;-69
2022/06/21 01:40:56;;;;;;;8.57;5.63;;;;;;;8.84;97.60;98273.75;5044914;28;20025;-69
2022/06/21 01:43:28;;;;;;;8.07;5.55;;;;;;;8.80;98.56;98267.66;5046024;28;20021;-69
2022/06/21 01:46:05;;;;;;;8.77;5.80;;;;;;;8.97;99.07;98274.38;5047016;28;20025;-69
2022/06/21 01:48:45;;;;;;;7.68;5.50;;;;;;;8.90;98.12;98278.00;5064477;28;20220;-69
2022/06/21 01:51:21;;;;;;;8.13;5.82;;;;;;;9.03;98.54;98276.88;5050362;28;20092;-69
2022/06/21 01:53:47;;;;;;;7.88;5.53;;;;;;;8.98;98.51;98281.38;5044595;28;20032;-69
2022/06/21 01:56:21;;;;;;;10.02;5.50;;;;;;;8.80;98.03;98267.66;5048395;28;20091;-69
2022/06/21 01:58:52;;;;;;;8.63;5.85;;;;;;;8.78;98.91;98272.09;5053030;28;20256;-69
2022/06/21 02:01:22;;;;;;;7.53;5.35;;;;;;;8.92;100.00;98265.72;5045674;28;20052;-69
2022/06/21 02:03:52;;;;;;;16.65;6.30;;;;;;;8.97;100.00;98258.63;5044492;28;20037;-69
2022/06/21 02:06:20;;;;;;;13.27;6.15;;;;;;;8.83;99.08;98257.13;5054222;28;20072;-69
2022/06/21 02:08:54;;;;;;;8.95;6.03;;;;;;;8.90;98.50;98262.25;5044363;28;20109;-69
2022/06/21 02:11:30;;;;;;;7.95;5.30;;;;;;;8.73;98.54;98260.81;5059535;28;20047;-69
2022/06/21 02:16:47;;;;;;;8.32;5.43;;;;;;;8.81;99.63;98252.81;5054322;28;20032;-69
2022/06/21 02:19:42;;;;;;;9.45;5.75;;;;;;;8.79;99.12;98260.69;5044207;28;20025;-69
2022/06/21 02:22:21;;;;;;;9.05;6.10;;;;;;;8.81;98.24;98268.53;5043874;28;20222;-69
2022/06/21 02:24:46;;;;;;;12.75;5.60;;;;;;;8.67;97.72;98260.91;5062118;28;20048;-69
2022/06/21 02:27:15;;;;;;;10.65;6.38;;;;;;;8.56;99.02;98257.63;5051309;28;20025;-69
2022/06/21 02:29:43;;;;;;;7.57;5.03;;;;;;;8.57;99.19;98264.59;5044078;28;20039;-69
2022/06/21 02:32:36;;;;;;;9.07;5.88;;;;;;;8.67;99.77;98253.03;5045434;28;20309;-69
2022/06/21 02:35:42;;;;;;;8.18;5.82;;;;;;;8.53;100.00;98251.56;5044008;28;20288;-69
2022/06/21 02:38:18;;;;;;;7.97;5.75;;;;;;;8.50;100.00;98241.13;5062921;28;20029;-69
2022/06/21 02:40:54;;;;;;;15.10;5.40;;;;;;;8.57;100.00;98238.38;5063598;28;20202;-69
2022/06/21 02:43:27;;;;;;;11.75;5.25;;;;;;;8.60;100.00;98238.31;5063588;28;20040;-69
2022/06/21 02:46:08;;;;;;;11.80;5.57;;;;;;;8.71;100.00;98241.59;5053553;28;20026;-69
2022/06/21 02:48:42;;;;;;;8.75;5.28;;;;;;;8.73;99.56;98239.81;5062834;28;20029;-69
2022/06/21 02:51:13;;;;;;;6.78;5.13;;;;;;;8.66;99.75;98238.22;5044970;28;20102;-69
2022/06/21 02:53:52;;;;;;;10.05;5.65;;;;;;;8.69;99.47;98243.41;5060117;28;20037;-69
2022/06/21 02:56:29;;;;;;;8.13;5.53;;;;;;;8.60;98.91;98243.56;5046936;28;20321;-69
2022/06/21 02:58:58;;;;;;;9.05;5.75;;;;;;;8.55;98.65;98229.66;5062060;28;20209;-69
2022/06/21 03:01:29;;;;;;;6.68;5.30;;;;;;;8.70;99.72;98224.13;5061801;28;20075;-69
2022/06/21 03:03:56;;;;;;;6.53;5.32;;;;;;;8.80;100.00;98214.34;5063644;28;20328;-69
2022/06/21 03:06:23;;;;;;;8.05;6.22;;;;;;;8.82;99.91;98216.03;5051832;28;20022;-69
2022/06/21 03:08:57;;;;;;;6.20;4.82;;;;;;;8.71;99.00;98199.63;5043736;28;20029;-69
2022/06/21 03:11:27;;;;;;;5.88;4.38;;;;;;;8.52;98.06;98197.38;5060427;28;20033;-69
2022/06/21 03:13:54;;;;;;;8.95;6.13;;;;;;;8.65;99.33;98202.38;5063294;28;20033;-69
2022/06/21 03:16:22;;;;;;;15.43;5.85;;;;;;;8.61;100.00;98200.69;5059569;28;20059;-69
2022/06/21 03:18:52;;;;;;;8.15;5.00;;;;;;;8.69;99.90;98193.56;5050521;28;20028;-70
2022/06/21 03:21:31;;;;;;;8.07;5.65;;;;;;;8.78;99.44;98198.63;5055376;28;20197;-70
2022/06/21 03:23:58;;;;;;;7.47;5.57;;;;;;;8.77;99.62;98196.88;5043405;28;20041;-70
2022/06/21 03:26:26;;;;;;;11.10;6.10;;;;;;;8.81;99.47;98184.56;5055084;28;20232;-70
2022/06/21 03:28:52;;;;;;;11.30;5.97;;;;;;;8.84;99.30;98181.91;5058839;28;20343;-70
2022/06/21 03:31:26;;;;;;;8.68;6.00;;;;;;;8.79;99.17;98171.50;5042438;28;20032;-70
2022/06/21 03:33:57;;;;;;;10.73;5.32;;;;;;;8.92;99.53;98187.00;5052701;28;20037;-70
2022/06/21 03:36:25;;;;;;;8.75;5.68;;;;;;;8.94;99.47;98182.56;5054289;28;20133;-70
2022/06/21 03:39:00;;;;;;;9.27;5.80;;;;;;;9.00;98.55;98182.44;5043601;28;20044;-70
2022/06/21 03:41:44;;;;;;;9.90;5.82;;;;;;;8.98;98.23;98173.75;5051127;28;20024;-70
2022/06/21 03:44:25;;;;;;;10.80;5.50;;;;;;;9.06;97.64;98163.94;5065105;28;20065;-70
2022/06/21 03:47:05;;;;;;;7.03;5.65;;;;;;;9.07;97.49;98165.66;5066348;28;20033;-70
2022/06/21 03:49:52;;;;;;;11.77;5.25;;;;;;;9.21;98.26;98158.38;5048354;28;20223;-70
2022/06/21 03:52:44;;;;;;;5.75;4.50;;;;;;;9.36;97.72;98160.69;5058296;28;20031;-70
2022/06/21 03:55:25;;;;;;;7.63;4.85;;;;;;;9.52;97.85;98162.06;5065410;28;20021;-70
2022/06/21 03:58:06;;;;;;;7.45;5.05;;;;;;;9.51;96.98;98157.69;5057784;28;20286;-70
2022/06/21 04:00:47;;;;;;;7.13;4.97;;;;;;;9.52;96.94;98152.41;5049281;28;20055;-70
2022/06/21 04:03:21;;;;;;;5.60;4.20;;;;;;;9.70;96.69;98148.47;5063959;28;20321;-70
2022/06/21 04:05:58;;;;;;;9.68;5.22;;;;;;;9.87;97.50;98152.44;5046268;28;20021;-70
2022/06/21 04:08:30;;;;;;;10.18;5.30;;;;;;;9.99;97.38;98140.75;5048401;28;20029;-70
2022/06/21 04:11:21;;;;;;;6.10;4.95;;;;;;;10.19;97.73;98135.91;5046625;28;20032;-70
2022/06/21 04:14:18;;;;;;;6.28;5.03;;;;;;;10.23;97.10;98148.06;5046548;28;20021;-70
2022/06/21 04:17:09;;;;;;;9.55;4.50;;;;;;;10.28;95.98;98140.91;5046260;28;20109;-70
2022/06/21 04:19:49;;;;;;;5.88;4.30;;;;;;;10.36;95.64;98142.47;5046465;28;20052;-70
2022/06/21 04:22:38;;;;;;;7.35;4.70;;;;;;;10.44;95.29;98150.16;5046405;28;20029;-70
2022/06/21 04:25:16;;;;;;;7.85;4.88;;;;;;;10.63;94.89;98148.72;5046217;28;20037;-70
2022/06/21 04:27:54;;;;;;;9.88;4.78;;;;;;;10.62;94.71;98150.53;5046175;28;20048;-70
2022/06/21 04:30:27;;;;;;;13.80;4.97;;;;;;;10.75;95.07;98158.94;5046304;28;20198;-70
2022/06/21 04:32:56;;;;;;;7.97;5.57;;;;;;;10.80;95.57;98159.69;5046268;28;20021;-70
2022/06/21 04:35:29;;;;;;;7.80;5.15;;;;;;;10.85;95.78;98168.28;5046157;28;20115;-70
2022/06/21 04:38:12;;;;;;;5.60;4.18;;;;;;;10.99;95.95;98174.06;5046136;28;20071;-70
2022/06/21 04:40:46;;;;;;;10.43;4.93;;;;;;;11.03;96.09;98173.06;5046066;28;20021;-70
2022/06/21 04:43:20;;;;;;;13.32;4.65;;;;;;;11.13;94.98;98165.78;5046007;28;20212;-70
2022/06/21 04:45:51;;;;;;;9.02;4.60;;;;;;;11.39;94.89;98164.06;5045846;28;20067;-70
2022/06/21 04:48:54;;;;;;;7.93;4.90;;;;;;;11.80;94.64;98176.88;5045931;28;20032;-70
2022/06/21 04:51:26;;;;;;;7.60;4.32;;;;;;;12.38;93.11;98174.09;5045359;28;20213;-70
2022/06/21 04:54:17;;;;;;;7.97;4.13;;;;;;;13.43;88.05;98169.41;5045918;28;20194;-70
2022/06/21 04:56:53;;;;;;;6.80;3.88;;;;;;;14.12;85.81;98177.22;5046009;28;20221;-70
2022/06/21 04:59:21;;;;;;;9.25;4.32;;;;;;;14.43;84.55;98176.84;5045839;28;20045;-70
2022/06/21 05:01:46;;;;;;;3.92;3.28;;;;;;;14.19;84.12;98160.16;5045655;28;20084;-70
2022/06/21 05:04:36;;;;;;;8.10;3.65;;;;;;;14.29;84.71;98150.06;5045571;28;20043;-70
2022/06/21 05:07:06;;;;;;;4.15;3.00;;;;;;;14.60;82.52;98147.88;5045067;28;20041;-70
2022/06/21 05:09:34;;;;;;;8.40;3.65;;;;;;;15.04;81.74;98149.44;5045469;28;20021;-70
2022/06/21 05:12:04;;;;;;;8.85;2.33;;;;;;;15.25;75.03;98153.75;5045743;28;20359;-70
2022/06/21 05:14:36;;;;;;;4.15;2.33;;;;;;;15.45;73.97;98167.00;5045470;28;20040;-70
2022/06/21 05:17:05;;;;;;;3.50;1.75;;;;;;;15.55;71.68;98163.00;5045656;28;20040;-70
2022/06/21 05:19:33;;;;;;;5.32;2.22;;;;;;;15.72;73.65;98165.72;5045314;28;20049;-70
2022/06/21 05:22:07;;;;;;;5.63;2.08;;;;;;;15.76;71.13;98171.75;5045337;28;20064;-70
2022/06/21 05:24:33;;;;;;;16.75;2.95;;;;;;;16.18;71.63;98197.09;5044983;28;20049;-70
2022/06/21 05:27:24;;;;;;;3.63;1.88;;;;;;;17.10;67.27;98201.25;5045133;28;20093;-70
2022/06/21 05:30:12;;;;;;;4.47;2.00;;;;;;;17.28;67.45;98202.94;5044467;28;20041;-70
2022/06/21 05:32:45;;;;;;;3.17;1.90;;;;;;;18.05;65.93;98208.50;5045080;28;20106;-70
2022/06/21 05:35:14;;;;;;;5.50;2.50;;;;;;;19.26;65.75;98208.47;5045056;28;20273;-70
2022/06/21 05:37:50;;;;;;;3.33;1.58;;;;;;;20.04;59.23;98214.22;5044996;28;20079;-70
2022/06/21 05:40:46;;;;;;;5.55;2.03;;;;;;;21.35;56.94;98223.31;5044869;28;20032;-70
2022/06/21 05:43:16;;;;;;;3.45;1.58;;;;;;;21.65;53.37;98231.88;5044853;28;20021;-70
2022/06/21 05:45:46;;;;;;;2.35;1.48;;;;;;;20.46;53.57;98230.19;5045026;28;20024;-70
2022/06/21 05:48:21;;;;;;;2.70;1.70;;;;;;;20.48;53.84;98230.97;5045042;28;20208;-70
2022/06/21 05:50:47;;;;;;;6.88;1.90;;;;;;;19.46;55.72;98224.16;5044721;28;20343;-70
2022/06/21 05:53:23;;;;;;;8.85;2.10;;;;;;;19.15;58.14;98235.78;5044704;28;20021;-70
2022/06/21 05:55:49;;;;;;;3.80;1.85;;;;;;;19.48;57.54;98240.06;5044624;28;20108;-70
2022/06/21 05:58:29;;;;;;;5.32;1.92;;;;;;;19.76;55.48;98242.75;5044556;28;20309;-70
2022/06/21 06:01:00;;;;;;;6.53;2.08;;;;;;;20.16;55.00;98250.88;5044570;28;20036;-70
2022/06/21 06:03:41;;;;;;;7.43;2.55;;;;;;;20.97;52.19;98250.84;5043963;28;20067;-70
2022/06/21 06:06:12;;;;;;;5.90;2.00;;;;;;;20.57;52.42;98257.06;5044653;28;20374;-70
2022/06/21 06:08:48;;;;;;;4.93;1.87;;;;;;;19.60;54.23;98250.00;5044686;28;20025;-70
2022/06/21 06:11:21;;;;;;;5.63;1.73;;;;;;;19.09;55.63;98251.31;5044351;28;20055;-70
2022/06/21 06:13:48;;;;;;;7.38;2.45;;;;;;;18.78;59.96;98264.72;5044305;28;20025;-70
2022/06/21 06:16:34;;;;;;;4.30;1.60;;;;;;;18.36;61.05;98273.38;5044282;28;20052;-70
2022/06/21 06:19:13;;;;;;;5.43;1.98;;;;;;;18.05;61.77;98265.31;5044304;28;20041;-70
2022/06/21 06:21:45;;;;;;;12.50;2.58;;;;;;;17.78;62.35;98252.66;5044500;28;20360;-70
2022/06/21 06:24:26;;;;;;;3.78;2.03;;;;;;;17.59;62.88;98204.84;5043914;28;20049;-70
2022/06/21 06:26:56;;;;;;;6.93;1.80;;;;;;;17.42;62.49;98116.19;5044161;28;20037;-70
2022/06/21 06:29:28;;;;;;;5.43;2.03;;;;;;;16.96;63.56;98094.75;5044152;28;20251;-70
2022/06/21 06:32:12;;;;;;;4.85;1.80;;;;;;;16.78;65.84;98111.69;5044138;28;20033;-70
2022/06/21 06:34:43;;;;;;;5.75;2.22;;;;;;;16.68;67.59;98133.50;5044024;28;20021;-70
2022/06/21 06:37:22;;;;;;;5.38;2.53;;;;;;;16.63;70.56;98140.84;5044082;28;20252;-70
2022/06/21 06:39:47;;;;;;;5.72;2.55;;;;;;;16.34;69.97;98123.72;5044238;28;20067;-70
2022/06/21 06:42:21;;;;;;;9.68;3.17;;;;;;;16.21;70.29;98114.63;5043979;28;20348;-70
2022/06/21 06:44:49;;;;;;;7.53;2.42;;;;;;;16.36;69.50;98116.50;5043867;28;20017;-70
2022/06/21 06:47:38;;;;;;;10.20;3.10;;;;;;;16.34;69.00;98102.47;5043929;28;20025;-70
2022/06/21 06:50:16;;;;;;;7.18;2.38;;;;;;;16.37;69.33;98083.72;5043934;28;20025;-70
2022/06/21 06:52:48;;;;;;;7.13;2.10;;;;;;;16.58;68.34;98105.69;5043859;28;20026;-70
2022/06/21 06:55:33;;;;;;;7.28;2.42;;;;;;;17.51;65.32;98121.06;5043870;28;20268;-70
2022/06/21 06:58:23;;;;;;;2.72;2.13;;;;;;;19.57;60.00;98127.38;5044062;28;20025;-70
2022/06/21 07:00:54;;;;;;;3.90;2.03;;;;;;;20.71;56.25;98128.66;5044083;28;20093;-70
2022/06/21 07:03:23;;;;;;;7.63;2.50;;;;;;;20.21;56.06;98111.59;5043726;28;20071;-70
2022/06/21 07:06:02;;;;;;;6.63;2.90;;;;;;;21.32;53.09;98124.47;5043688;28;20128;-70
2022/06/21 07:08:37;;;;;;;5.55;2.33;;;;;;;22.74;51.19;98131.75;5043767;28;20033;-70
2022/06/21 07:11:18;;;;;;;4.38;1.80;;;;;;;23.20;48.52;98127.25;5043684;28;20320;-70
2022/06/21 07:13:43;;;;;;;6.53;2.03;;;;;;;23.73;47.97;98125.72;5044687;28;20025;-70
2022/06/21 07:16:14;;;;;;;4.88;1.83;;;;;;;23.12;47.54;98113.56;5047647;28;20028;-70
2022/06/21 07:18:51;;;;;;;4.35;2.30;;;;;;;22.30;49.08;98105.56;5047625;28;20021;-70
2022/06/21 07:21:19;;;;;;;5.13;2.70;;;;;;;22.77;48.62;98131.53;5047545;28;20033;-70
2022/06/21 07:23:44;;;;;;;2.70;1.80;;;;;;;23.18;46.98;98135.44;5047389;28;20037;-70
2022/06/21 07:26:23;;;;;;;5.80;1.80;;;;;;;23.15;46.43;98119.56;5047401;28;20392;-70
2022/06/21 07:28:56;;;;;;;5.63;1.67;;;;;;;23.06;45.50;98124.78;5047366;28;20097;-70
2022/06/21 07:32:07;;;;;;;4.57;1.83;;;;;;;22.55;46.85;98107.28;5047369;28;20321;-70
2022/06/21 07:34:42;;;;;;;4.82;2.03;;;;;;;23.10;45.76;98111.00;5046680;28;20040;-70
2022/06/21 07:37:23;;;;;;;5.38;1.95;;;;;;;24.21;44.53;98111.03;5047523;28;20021;-70
2022/06/21 07:40:04;;;;;;;6.07;1.98;;;;;;;24.68;44.28;98116.88;5047183;28;20221;-70
2022/06/21 07:42:35;;;;;;;6.53;1.38;;;;;;;25.57;41.51;98110.97;5046030;28;20096;-70
2022/06/21 07:45:24;;;;;;;4.88;2.08;;;;;;;25.03;42.12;98109.34;5047088;28;20136;-70
2022/06/21 07:47:56;;;;;;;3.30;1.75;;;;;;;24.80;43.02;98094.28;5047099;28;20025;-70
2022/06/21 07:50:52;;;;;;;5.78;1.85;;;;;;;24.93;42.59;98100.34;5047093;28;20021;-70
2022/06/21 07:53:25;;;;;;;4.10;1.77;;;;;;;24.81;42.94;98087.91;5046529;28;20109;-70
2022/06/21 07:56:00;;;;;;;3.72;1.70;;;;;;;25.13;42.17;98091.38;5047038;28;20317;-70
2022/06/21 07:58:43;;;;;;;5.93;1.90;;;;;;;25.71;42.24;98086.31;5046863;28;20036;-70
2022/06/21 08:07:26;;;;;;;11.45;1.42;;;;;;;25.59;41.92;98071.25;5046263;28;20382;-70
2022/06/21 08:10:03;;;;;;;8.90;1.80;;;;;;;25.81;41.53;98073.75;5046663;28;20044;-70
2022/06/21 08:12:29;;;;;;;4.10;1.63;;;;;;;25.06;43.18;98068.69;5046596;28;20029;-70
2022/06/21 08:14:54;;;;;;;5.03;2.13;;;;;;;26.12;42.06;98073.56;5046610;28;20028;-70
2022/06/21 08:17:42;;;;;;;4.45;1.98;;;;;;;26.71;40.60;98081.59;5046616;28;20052;-70
2022/06/21 08:20:25;;;;;;;3.65;1.65;;;;;;;27.18;40.65;98081.50;5046690;28;20025;-70
2022/06/21 08:22:53;;;;;;;3.88;1.92;;;;;;;25.63;42.38;98072.69;5046289;28;20025;-70
2022/06/21 08:25:45;;;;;;;6.15;1.65;;;;;;;24.87;44.67;98075.81;5045319;28;20256;-70
2022/06/21 08:28:19;;;;;;;2.40;1.92;;;;;;;24.52;45.58;98080.59;5046088;28;20048;-70
2022/06/21 08:30:53;;;;;;;5.95;2.00;;;;;;;24.95;45.04;98090.31;5046286;28;20021;-70
2022/06/21 08:33:37;;;;;;;4.13;1.90;;;;;;;24.41;46.31;98086.00;5046197;28;20066;-70
2022/06/21 08:36:08;;;;;;;5.00;2.40;;;;;;;24.28;46.80;98093.38;5046190;28;20095;-70
2022/06/21 08:39:08;;;;;;;4.20;2.33;;;;;;;24.61;46.59;98099.50;5046169;28;20028;-70
2022/06/21 08:41:59;;;;;;;6.88;2.30;;;;;;;25.17;45.74;98092.84;5045434;28;20041;-70
2022/06/21 08:47:51;;;;;;;5.53;2.13;;;;;;;25.83;44.63;98113.06;5045955;28;20076;-70
2022/06/21 08:50:51;;;;;;;3.72;2.17;;;;;;;26.96;43.11;98121.53;5045853;28;20025;-70
2022/06/21 08:53:50;;;;;;;4.93;2.20;;;;;;;26.86;42.27;98120.69;5045847;28;20041;-70
2022/06/21 08:56:24;;;;;;;6.57;2.33;;;;;;;28.19;41.11;98123.00;5045841;28;20085;-70
2022/06/21 08:58:55;;;;;;;5.88;2.30;;;;;;;28.00;40.30;98115.00;5045781;28;20029;-70
2022/06/21 09:01:39;;;;;;;6.78;2.10;;;;;;;28.26;40.50;98118.72;5045733;28;20348;-70
2022/06/21 09:04:29;;;;;;;3.92;1.90;;;;;;;28.96;39.02;98132.34;5045585;28;20025;-70
2022/06/21 09:07:07;;;;;;;4.97;2.08;;;;;;;29.19;38.97;98127.28;5045610;28;20029;-70
2022/06/21 09:09:58;;;;;;;6.15;2.10;;;;;;;28.65;39.26;98114.75;5045607;28;20030;-70
2022/06/21 09:12:37;;;;;;;5.50;2.22;;;;;;;28.63;39.67;98116.75;5045582;28;20025;-70
2022/06/21 09:15:21;;;;;;;2.97;1.90;;;;;;;29.52;39.34;98117.53;5045467;28;20021;-70
2022/06/21 09:18:06;;;;;;;3.33;2.17;;;;;;;29.08;38.72;98104.00;5045348;28;20036;-70
2022/06/21 09:20:51;;;;;;;3.47;1.95;;;;;;;28.22;40.18;98098.34;5045380;28;20025;-70
2022/06/21 09:24:04;;;;;;;6.85;2.65;;;;;;;28.79;39.78;98108.78;5045128;28;20100;-70
2022/06/21 09:26:33;;;;;;;2.97;2.03;;;;;;;28.99;40.89;98104.94;5045028;28;20049;-70
2022/06/21 09:29:34;;;;;;;4.47;2.30;;;;;;;29.55;41.29;98100.94;5045100;28;20212;-70
2022/06/21 09:32:14;;;;;;;5.20;2.45;;;;;;;29.54;39.81;98093.81;5044890;28;20087;-70
2022/06/21 09:35:02;;;;;;;10.60;3.03;;;;;;;30.06;39.28;98112.63;5045086;28;20032;-70
2022/06/21 09:37:58;;;;;;;5.40;2.75;;;;;;;29.48;40.17;98116.16;5044888;28;20028;-70
2022/06/21 09:40:31;;;;;;;4.10;2.35;;;;;;;29.31;41.93;98100.78;5044902;28;20025;-70
2022/06/21 09:43:21;;;;;;;6.70;2.90;;;;;;;29.01;41.62;98092.06;5044838;28;20088;-70
2022/06/21 09:46:03;;;;;;;6.35;3.15;;;;;;;28.54;42.65;98082.47;5044742;28;20029;-70
2022/06/21 09:48:38;;;;;;;3.85;2.78;;;;;;;28.38;43.53;98074.16;5044814;28;20031;-70
2022/06/21 09:51:17;;;;;;;8.73;3.50;;;;;;;27.91;44.35;98067.22;5044805;28;20086;-70
2022/06/21 09:54:17;;;;;;;6.50;3.28;;;;;;;28.77;43.97;98094.56;5044700;28;20132;-70
2022/06/21 09:57:03;;;;;;;8.55;3.80;;;;;;;28.48;43.52;98077.72;5044629;28;20025;-70
2022/06/21 09:59:31;;;;;;;8.88;4.07;;;;;;;27.93;44.49;98057.09;5044628;28;20029;-70
2022/06/21 10:02:05;;;;;;;7.75;3.78;;;;;;;28.27;44.55;98074.41;5044640;28;20025;-70
2022/06/21 10:04:45;;;;;;;6.30;3.50;;;;;;;28.83;44.02;98075.00;5044445;28;20092;-70
2022/06/21 10:07:33;;;;;;;9.82;3.38;;;;;;;28.71;43.77;98078.06;5044480;28;20273;-70
2022/06/21 10:10:28;;;;;;;5.53;3.40;;;;;;;28.50;44.88;98070.25;5044394;28;20037;-70
2022/06/21 10:13:14;;;;;;;7.07;3.63;;;;;;;28.78;44.21;98077.31;5044434;28;20028;-70
2022/06/21 10:16:05;;;;;;;5.93;3.58;;;;;;;28.61;43.79;98075.47;5044362;28;20087;-70
2022/06/21 10:19:03;;;;;;;18.08;4.70;;;;;;;28.83;44.29;98053.31;5043583;28;20036;-70
2022/06/21 10:21:47;;;;;;;12.30;3.83;;;;;;;29.03;43.95;98065.69;5044188;28;20063;-70
2022/06/21 10:24:25;;;;;;;6.63;3.55;;;;;;;29.38;43.93;98066.63;5043987;28;20041;-70
2022/06/21 10:27:19;;;;;;;6.07;3.85;;;;;;;28.85;44.30;98058.53;5044073;28;20033;-70
2022/06/21 10:29:55;;;;;;;6.40;3.88;;;;;;;28.51;45.27;98061.13;5044132;28;20031;-70
2022/06/21 10:32:39;;;;;;;8.27;3.88;;;;;;;29.08;45.51;98066.03;5044137;28;20373;-70
2022/06/21 10:35:07;;;;;;;6.35;3.20;;;;;;;29.65;44.21;98063.72;5044102;28;20025;-70
2022/06/21 10:37:56;;;;;;;7.90;4.03;;;;;;;28.98;43.89;98065.25;5044296;28;20021;-70
2022/06/21 10:40:50;;;;;;;6.78;3.60;;;;;;;28.57;44.62;98065.91;5043969;28;20029;-70
2022/06/21 10:43:29;;;;;;;8.10;3.80;;;;;;;27.84;47.84;98063.38;5043945;28;20309;-70
2022/06/21 10:46:02;;;;;;;6.30;3.70;;;;;;;27.69;46.84;98055.91;5043925;28;20190;-70
2022/06/21 10:48:34;;;;;;;9.52;4.32;;;;;;;26.96;48.26;98051.28;5043451;28;20089;-70
2022/06/21 10:51:21;;;;;;;9.13;3.97;;;;;;;27.58;47.57;98048.00;5043967;28;20033;-70
2022/06/21 10:54:02;;;;;;;6.10;3.83;;;;;;;28.18;46.70;98050.09;5043884;28;20317;-70
2022/06/21 10:57:10;;;;;;;12.25;4.30;;;;;;;28.04;47.06;98056.91;5043886;28;20021;-70
2022/06/21 11:01:17;;;;;;;7.38;3.58;;;;;;;28.02;46.75;98042.66;5043803;28;20052;-70
2022/06/21 11:03:01;;;;;;;11.30;4.30;;;;;;;27.01;48.88;98038.19;5043757;28;20036;-70
2022/06/21 11:05:57;;;;;;;10.77;4.35;;;;;;;27.32;47.75;98028.88;5043719;28;20041;-70
2022/06/21 11:08:31;;;;;;;5.28;3.60;;;;;;;28.08;47.57;98031.22;5043747;28;20034;-70
2022/06/21 11:11:06;;;;;;;8.20;4.20;;;;;;;27.18;48.95;98002.31;5043690;28;20025;-70
2022/06/21 11:13:38;;;;;;;7.60;4.03;;;;;;;27.72;48.12;98007.78;5043712;28;20056;-70
2022/06/21 11:16:17;;;;;;;6.65;4.22;;;;;;;28.06;46.86;97998.03;5043555;28;20032;-70
2022/06/21 11:19:22;;;;;;;8.88;3.80;;;;;;;28.06;47.06;97995.34;5043700;28;20052;-70
2022/06/21 11:21:50;;;;;;;7.47;3.58;;;;;;;28.41;46.01;97995.34;5043605;28;20025;-70
2022/06/21 11:24:23;;;;;;;5.43;3.35;;;;;;;27.79;47.69;97975.56;5043372;28;20041;-70
2022/06/21 11:26:56;;;;;;;9.15;4.25;;;;;;;28.15;47.18;97978.19;5043474;28;20041;-70
2022/06/21 11:29:30;;;;;;;10.15;4.35;;;;;;;27.82;47.51;97968.00;5043502;28;20017;-70
2022/06/21 11:32:08;;;;;;;6.97;3.55;;;;;;;27.76;47.67;97943.41;5043616;28;20026;-70
2022/06/21 11:34:49;;;;;;;6.38;3.22;;;;;;;28.50;48.80;97961.94;5043528;28;20168;-70
2022/06/21 11:37:39;;;;;;;4.95;3.13;;;;;;;27.61;48.38;97940.38;5043666;28;20028;-70
2022/06/21 11:40:33;;;;;;;4.85;3.25;;;;;;;27.37;49.45;97929.31;5043417;28;20068;-70
2022/06/21 11:43:02;;;;;;;7.40;4.05;;;;;;;27.45;49.28;97929.38;5043476;28;20041;-70
2022/06/21 11:45:49;;;;;;;5.90;3.83;;;;;;;27.48;49.33;97939.03;5043324;28;20367;-70
2022/06/21 11:48:37;;;;;;;9.35;3.67;;;;;;;27.45;48.69;97932.09;5043353;28;20032;-70
2022/06/21 11:51:11;;;;;;;9.13;4.25;;;;;;;27.46;48.74;97925.66;5043345;28;20037;-70
2022/06/21 11:53:47;;;;;;;8.00;3.80;;;;;;;27.25;49.55;97922.41;5043342;28;20025;-70
2022/06/21 11:56:19;;;;;;;8.27;4.28;;;;;;;27.25;49.00;97919.69;5043554;28;20252;-70
2022/06/21 11:59:05;;;;;;;5.15;3.47;;;;;;;27.46;49.23;97925.66;5043549;28;20309;-70
2022/06/21 12:01:44;;;;;;;8.65;4.03;;;;;;;27.66;49.24;97921.88;5045311;28;20080;-70
2022/06/21 12:04:24;;;;;;;6.18;4.13;;;;;;;27.47;49.61;97905.75;5046976;28;20062;-70
2022/06/21 12:06:53;;;;;;;12.50;3.88;;;;;;;27.66;49.09;97897.53;5046709;28;20249;-70
2022/06/21 12:09:37;;;;;;;8.63;4.20;;;;;;;27.66;48.40;97893.97;5046664;28;20021;-70
2022/06/21 12:12:40;;;;;;;10.90;4.07;;;;;;;27.25;49.19;97885.38;5046638;28;20088;-70
2022/06/21 12:15:19;;;;;;;8.68;3.70;;;;;;;27.29;49.93;97880.53;5046528;28;20029;-70
2022/06/21 12:17:54;;;;;;;7.30;4.15;;;;;;;27.37;50.32;97880.66;5046533;28;20337;-70
2022/06/21 12:20:49;;;;;;;7.22;3.80;;;;;;;27.20;49.81;97892.22;5046506;28;20021;-70
2022/06/21 12:23:27;;;;;;;6.38;3.80;;;;;;;27.01;49.40;97889.63;5045147;28;20049;-70
2022/06/21 12:25:53;;;;;;;16.85;4.78;;;;;;;27.14;49.21;97892.81;5046356;28;20268;-70
2022/06/21 12:28:22;;;;;;;7.53;4.30;;;;;;;27.01;49.63;97886.91;5046521;28;20021;-70
2022/06/21 12:30:50;;;;;;;6.65;4.07;;;;;;;27.12;50.11;97900.25;5046293;28;20021;-70
2022/06/21 12:33:18;;;;;;;13.65;4.00;;;;;;;27.38;49.77;97906.66;5046257;28;20071;-70
2022/06/21 12:36:13;;;;;;;8.20;4.32;;;;;;;27.77;48.81;97918.09;5046485;28;20013;-70